sensor_id;sensor_type;location;lat;lon;timestamp;P1;durP1;ratioP1;P2;durP2;ratioP2
39848;SDS011;25518;47.878;15.914;2024-03-06T00:00:36;10.70;;;4.47;;
39848;SDS011;25518;47.878;15.914;2024-03-06T00:03:28;9.98;;;4.63;;
39848;SDS011;25518;47.878;15.914;2024-03-06T00:06:19;6.90;;;3.90;;
39848;SDS011;25518;47.878;15.914;2024-03-06T00:09:12;9.32;;;4.30;;
39848;SDS011;25518;47.878;15.914;2024-03-06T00:12:04;10.98;;;4.40;;
39848;SDS011;25518;47.878;15.914;2024-03-06T00:14:56;13.40;;;4.65;;
39848;SDS011;25518;47.878;15.914;2024-03-06T00:17:48;8.80;;;4.53;;
39848;SDS011;25518;47.878;15.914;2024-03-06T00:20:40;11.85;;;4.95;;
39848;SDS011;25518;47.878;15.914;2024-03-06T00:23:33;9.45;;;4.32;;
39848;SDS011;25518;47.878;15.914;2024-03-06T00:26:26;8.75;;;4.45;;
39848;SDS011;25518;47.878;15.914;2024-03-06T00:29:17;7.97;;;4.40;;
39848;SDS011;25518;47.878;15.914;2024-03-06T00:32:10;8.57;;;4.55;;
39848;SDS011;25518;47.878;15.914;2024-03-06T00:35:01;8.00;;;3.90;;
39848;SDS011;25518;47.878;15.914;2024-03-06T00:37:54;10.83;;;4.30;;
39848;SDS011;25518;47.878;15.914;2024-03-06T00:40:46;8.20;;;4.07;;
39848;SDS011;25518;47.878;15.914;2024-03-06T00:43:37;10.18;;;4.28;;
39848;SDS011;25518;47.878;15.914;2024-03-06T00:46:29;8.83;;;4.73;;
39848;SDS011;25518;47.878;15.914;2024-03-06T00:49:21;9.18;;;4.35;;
39848;SDS011;25518;47.878;15.914;2024-03-06T00:52:12;7.78;;;3.85;;
39848;SDS011;25518;47.878;15.914;2024-03-06T00:55:05;10.33;;;5.07;;
39848;SDS011;25518;47.878;15.914;2024-03-06T00:57:57;9.93;;;4.43;;
39848;SDS011;25518;47.878;15.914;2024-03-06T01:00:49;9.32;;;4.30;;
39848;SDS011;25518;47.878;15.914;2024-03-06T01:03:41;10.02;;;4.40;;
39848;SDS011;25518;47.878;15.914;2024-03-06T01:06:34;10.02;;;4.88;;
39848;SDS011;25518;47.878;15.914;2024-03-06T01:09:26;9.77;;;5.40;;
39848;SDS011;25518;47.878;15.914;2024-03-06T01:12:18;12.10;;;5.30;;
39848;SDS011;25518;47.878;15.914;2024-03-06T01:15:09;12.02;;;5.00;;
39848;SDS011;25518;47.878;15.914;2024-03-06T01:18:02;10.82;;;5.05;;
39848;SDS011;25518;47.878;15.914;2024-03-06T01:20:54;13.18;;;6.32;;
39848;SDS011;25518;47.878;15.914;2024-03-06T01:23:45;11.98;;;5.82;;
39848;SDS011;25518;47.878;15.914;2024-03-06T01:26:37;9.85;;;4.88;;
39848;SDS011;25518;47.878;15.914;2024-03-06T01:29:32;8.65;;;4.55;;
39848;SDS011;25518;47.878;15.914;2024-03-06T01:32:24;9.82;;;4.43;;
39848;SDS011;25518;47.878;15.914;2024-03-06T01:35:15;11.30;;;5.20;;
39848;SDS011;25518;47.878;15.914;2024-03-06T01:38:07;12.57;;;6.00;;
39848;SDS011;25518;47.878;15.914;2024-03-06T01:41:01;9.93;;;5.28;;
39848;SDS011;25518;47.878;15.914;2024-03-06T01:43:55;9.95;;;4.63;;
39848;SDS011;25518;47.878;15.914;2024-03-06T01:46:46;12.50;;;4.95;;
39848;SDS011;25518;47.878;15.914;2024-03-06T01:49:38;12.33;;;5.07;;
39848;SDS011;25518;47.878;15.914;2024-03-06T01:52:32;11.85;;;4.70;;
39848;SDS011;25518;47.878;15.914;2024-03-06T01:55:24;9.70;;;4.82;;
39848;SDS011;25518;47.878;15.914;2024-03-06T01:58:16;9.95;;;5.05;;
39848;SDS011;25518;47.878;15.914;2024-03-06T02:01:08;10.27;;;4.82;;
39848;SDS011;25518;47.878;15.914;2024-03-06T02:04:06;11.27;;;5.70;;
39848;SDS011;25518;47.878;15.914;2024-03-06T02:07:00;9.75;;;4.93;;
39848;SDS011;25518;47.878;15.914;2024-03-06T02:09:52;11.63;;;5.33;;
39848;SDS011;25518;47.878;15.914;2024-03-06T02:12:44;8.85;;;4.47;;
39848;SDS011;25518;47.878;15.914;2024-03-06T02:15:38;10.57;;;4.93;;
39848;SDS011;25518;47.878;15.914;2024-03-06T02:18:29;9.23;;;4.95;;
39848;SDS011;25518;47.878;15.914;2024-03-06T02:21:22;10.18;;;4.75;;
39848;SDS011;25518;47.878;15.914;2024-03-06T02:24:14;8.68;;;4.50;;
39848;SDS011;25518;47.878;15.914;2024-03-06T02:27:06;9.63;;;4.70;;
39848;SDS011;25518;47.878;15.914;2024-03-06T02:29:58;11.82;;;5.85;;
39848;SDS011;25518;47.878;15.914;2024-03-06T02:32:50;9.93;;;4.55;;
39848;SDS011;25518;47.878;15.914;2024-03-06T02:35:41;10.50;;;4.60;;
39848;SDS011;25518;47.878;15.914;2024-03-06T02:38:36;9.90;;;5.40;;
39848;SDS011;25518;47.878;15.914;2024-03-06T02:41:27;9.85;;;5.45;;
39848;SDS011;25518;47.878;15.914;2024-03-06T02:44:20;8.90;;;4.90;;
39848;SDS011;25518;47.878;15.914;2024-03-06T02:47:11;10.43;;;5.27;;
39848;SDS011;25518;47.878;15.914;2024-03-06T02:50:04;10.90;;;4.95;;
39848;SDS011;25518;47.878;15.914;2024-03-06T02:52:55;9.68;;;5.00;;
39848;SDS011;25518;47.878;15.914;2024-03-06T02:55:48;8.93;;;4.85;;
39848;SDS011;25518;47.878;15.914;2024-03-06T02:58:39;10.73;;;5.00;;
39848;SDS011;25518;47.878;15.914;2024-03-06T03:01:32;9.57;;;4.45;;
39848;SDS011;25518;47.878;15.914;2024-03-06T03:04:24;13.00;;;5.50;;
39848;SDS011;25518;47.878;15.914;2024-03-06T03:07:16;12.32;;;5.07;;
39848;SDS011;25518;47.878;15.914;2024-03-06T03:10:08;10.70;;;4.95;;
39848;SDS011;25518;47.878;15.914;2024-03-06T03:13:02;10.90;;;4.97;;
39848;SDS011;25518;47.878;15.914;2024-03-06T03:15:55;11.20;;;4.80;;
39848;SDS011;25518;47.878;15.914;2024-03-06T03:18:47;10.55;;;5.30;;
39848;SDS011;25518;47.878;15.914;2024-03-06T03:21:41;11.23;;;5.35;;
39848;SDS011;25518;47.878;15.914;2024-03-06T03:24:33;9.68;;;4.97;;
39848;SDS011;25518;47.878;15.914;2024-03-06T03:27:24;10.93;;;5.03;;
39848;SDS011;25518;47.878;15.914;2024-03-06T03:30:17;8.90;;;4.47;;
39848;SDS011;25518;47.878;15.914;2024-03-06T03:33:12;12.20;;;5.22;;
39848;SDS011;25518;47.878;15.914;2024-03-06T03:36:06;8.45;;;4.50;;
39848;SDS011;25518;47.878;15.914;2024-03-06T03:38:57;8.88;;;4.55;;
39848;SDS011;25518;47.878;15.914;2024-03-06T03:41:49;9.77;;;4.65;;
39848;SDS011;25518;47.878;15.914;2024-03-06T03:44:41;12.38;;;5.40;;
39848;SDS011;25518;47.878;15.914;2024-03-06T03:47:33;10.67;;;5.17;;
39848;SDS011;25518;47.878;15.914;2024-03-06T03:50:24;11.30;;;5.63;;
39848;SDS011;25518;47.878;15.914;2024-03-06T03:53:16;10.52;;;5.18;;
39848;SDS011;25518;47.878;15.914;2024-03-06T03:56:08;11.52;;;5.20;;
39848;SDS011;25518;47.878;15.914;2024-03-06T03:58:59;12.57;;;5.43;;
39848;SDS011;25518;47.878;15.914;2024-03-06T04:01:51;10.40;;;4.90;;
39848;SDS011;25518;47.878;15.914;2024-03-06T04:04:43;14.63;;;5.68;;
39848;SDS011;25518;47.878;15.914;2024-03-06T04:07:36;12.60;;;5.30;;
39848;SDS011;25518;47.878;15.914;2024-03-06T04:10:28;11.90;;;5.40;;
39848;SDS011;25518;47.878;15.914;2024-03-06T04:13:19;10.82;;;5.20;;
39848;SDS011;25518;47.878;15.914;2024-03-06T04:16:15;14.77;;;5.85;;
39848;SDS011;25518;47.878;15.914;2024-03-06T04:19:07;10.15;;;5.60;;
39848;SDS011;25518;47.878;15.914;2024-03-06T04:21:59;15.18;;;5.53;;
39848;SDS011;25518;47.878;15.914;2024-03-06T04:24:51;11.70;;;5.30;;
39848;SDS011;25518;47.878;15.914;2024-03-06T04:27:42;12.95;;;5.28;;
39848;SDS011;25518;47.878;15.914;2024-03-06T04:30:34;13.90;;;6.25;;
39848;SDS011;25518;47.878;15.914;2024-03-06T04:33:27;11.77;;;5.75;;
39848;SDS011;25518;47.878;15.914;2024-03-06T04:36:18;10.73;;;5.25;;
39848;SDS011;25518;47.878;15.914;2024-03-06T04:39:10;11.55;;;5.43;;
39848;SDS011;25518;47.878;15.914;2024-03-06T04:42:02;12.05;;;5.30;;
39848;SDS011;25518;47.878;15.914;2024-03-06T04:44:55;11.27;;;5.47;;
39848;SDS011;25518;47.878;15.914;2024-03-06T04:47:47;12.55;;;6.10;;
39848;SDS011;25518;47.878;15.914;2024-03-06T04:50:38;10.73;;;5.63;;
39848;SDS011;25518;47.878;15.914;2024-03-06T04:53:30;12.98;;;5.00;;
39848;SDS011;25518;47.878;15.914;2024-03-06T04:56:22;12.48;;;5.40;;
39848;SDS011;25518;47.878;15.914;2024-03-06T04:59:13;15.23;;;6.57;;
39848;SDS011;25518;47.878;15.914;2024-03-06T05:02:06;16.95;;;7.93;;
39848;SDS011;25518;47.878;15.914;2024-03-06T05:05:00;15.23;;;6.78;;
39848;SDS011;25518;47.878;15.914;2024-03-06T05:07:53;12.15;;;5.97;;
39848;SDS011;25518;47.878;15.914;2024-03-06T05:10:45;13.47;;;6.10;;
39848;SDS011;25518;47.878;15.914;2024-03-06T05:13:36;14.43;;;7.00;;
39848;SDS011;25518;47.878;15.914;2024-03-06T05:16:28;12.63;;;5.78;;
39848;SDS011;25518;47.878;15.914;2024-03-06T05:19:21;11.70;;;6.00;;
39848;SDS011;25518;47.878;15.914;2024-03-06T05:22:13;12.75;;;5.97;;
39848;SDS011;25518;47.878;15.914;2024-03-06T05:25:05;12.90;;;5.40;;
39848;SDS011;25518;47.878;15.914;2024-03-06T05:27:57;15.02;;;6.35;;
39848;SDS011;25518;47.878;15.914;2024-03-06T05:30:49;13.15;;;6.80;;
39848;SDS011;25518;47.878;15.914;2024-03-06T05:33:41;12.15;;;5.78;;
39848;SDS011;25518;47.878;15.914;2024-03-06T05:36:32;12.93;;;6.40;;
39848;SDS011;25518;47.878;15.914;2024-03-06T05:39:24;13.03;;;6.47;;
39848;SDS011;25518;47.878;15.914;2024-03-06T05:42:16;12.98;;;6.25;;
39848;SDS011;25518;47.878;15.914;2024-03-06T05:45:08;11.60;;;6.15;;
39848;SDS011;25518;47.878;15.914;2024-03-06T05:48:01;13.40;;;6.40;;
39848;SDS011;25518;47.878;15.914;2024-03-06T05:50:54;12.98;;;6.35;;
39848;SDS011;25518;47.878;15.914;2024-03-06T05:53:46;11.45;;;5.63;;
39848;SDS011;25518;47.878;15.914;2024-03-06T05:56:37;13.23;;;6.38;;
39848;SDS011;25518;47.878;15.914;2024-03-06T05:59:29;14.48;;;6.82;;
39848;SDS011;25518;47.878;15.914;2024-03-06T06:02:21;12.27;;;6.20;;
39848;SDS011;25518;47.878;15.914;2024-03-06T06:05:13;15.00;;;6.07;;
39848;SDS011;25518;47.878;15.914;2024-03-06T06:08:05;14.10;;;6.45;;
39848;SDS011;25518;47.878;15.914;2024-03-06T06:10:57;12.98;;;6.13;;
39848;SDS011;25518;47.878;15.914;2024-03-06T06:13:48;14.70;;;7.15;;
39848;SDS011;25518;47.878;15.914;2024-03-06T06:16:41;16.27;;;7.50;;
39848;SDS011;25518;47.878;15.914;2024-03-06T06:19:33;13.68;;;6.65;;
39848;SDS011;25518;47.878;15.914;2024-03-06T06:22:27;13.25;;;6.68;;
39848;SDS011;25518;47.878;15.914;2024-03-06T06:25:18;14.60;;;6.03;;
39848;SDS011;25518;47.878;15.914;2024-03-06T06:28:10;13.02;;;6.88;;
39848;SDS011;25518;47.878;15.914;2024-03-06T06:31:03;14.13;;;7.90;;
39848;SDS011;25518;47.878;15.914;2024-03-06T06:33:54;14.50;;;7.00;;
39848;SDS011;25518;47.878;15.914;2024-03-06T06:36:46;13.27;;;6.05;;
39848;SDS011;25518;47.878;15.914;2024-03-06T06:39:39;12.85;;;7.05;;
39848;SDS011;25518;47.878;15.914;2024-03-06T06:42:30;14.63;;;6.63;;
39848;SDS011;25518;47.878;15.914;2024-03-06T06:45:22;12.93;;;6.43;;
39848;SDS011;25518;47.878;15.914;2024-03-06T06:48:13;13.10;;;6.38;;
39848;SDS011;25518;47.878;15.914;2024-03-06T06:51:05;15.35;;;6.60;;
39848;SDS011;25518;47.878;15.914;2024-03-06T06:53:57;12.38;;;6.05;;
39848;SDS011;25518;47.878;15.914;2024-03-06T06:56:49;14.00;;;6.35;;
39848;SDS011;25518;47.878;15.914;2024-03-06T06:59:41;13.55;;;6.50;;
39848;SDS011;25518;47.878;15.914;2024-03-06T07:02:33;13.85;;;6.47;;
39848;SDS011;25518;47.878;15.914;2024-03-06T07:05:24;13.50;;;6.63;;
39848;SDS011;25518;47.878;15.914;2024-03-06T07:08:16;14.93;;;7.00;;
39848;SDS011;25518;47.878;15.914;2024-03-06T07:11:08;11.75;;;6.63;;
39848;SDS011;25518;47.878;15.914;2024-03-06T07:14:02;12.90;;;6.63;;
39848;SDS011;25518;47.878;15.914;2024-03-06T07:16:54;16.00;;;6.43;;
39848;SDS011;25518;47.878;15.914;2024-03-06T07:19:46;15.82;;;6.60;;
39848;SDS011;25518;47.878;15.914;2024-03-06T07:22:37;19.08;;;8.55;;
39848;SDS011;25518;47.878;15.914;2024-03-06T07:25:30;15.00;;;6.55;;
39848;SDS011;25518;47.878;15.914;2024-03-06T07:28:22;13.52;;;6.88;;
39848;SDS011;25518;47.878;15.914;2024-03-06T07:31:13;11.00;;;6.20;;
39848;SDS011;25518;47.878;15.914;2024-03-06T07:34:06;13.95;;;6.07;;
39848;SDS011;25518;47.878;15.914;2024-03-06T07:37:00;12.75;;;6.20;;
39848;SDS011;25518;47.878;15.914;2024-03-06T07:39:52;12.90;;;6.53;;
39848;SDS011;25518;47.878;15.914;2024-03-06T07:42:43;14.77;;;7.23;;
39848;SDS011;25518;47.878;15.914;2024-03-06T07:45:35;13.90;;;7.28;;
39848;SDS011;25518;47.878;15.914;2024-03-06T07:48:27;15.10;;;6.65;;
39848;SDS011;25518;47.878;15.914;2024-03-06T07:51:19;13.50;;;7.20;;
39848;SDS011;25518;47.878;15.914;2024-03-06T07:54:10;15.77;;;7.45;;
39848;SDS011;25518;47.878;15.914;2024-03-06T07:57:02;13.88;;;6.18;;
39848;SDS011;25518;47.878;15.914;2024-03-06T07:59:54;15.50;;;7.38;;
39848;SDS011;25518;47.878;15.914;2024-03-06T08:02:45;15.23;;;7.68;;
39848;SDS011;25518;47.878;15.914;2024-03-06T08:05:40;13.52;;;7.35;;
39848;SDS011;25518;47.878;15.914;2024-03-06T08:08:35;15.90;;;7.50;;
39848;SDS011;25518;47.878;15.914;2024-03-06T08:11:27;15.15;;;7.88;;
39848;SDS011;25518;47.878;15.914;2024-03-06T08:14:18;13.80;;;7.50;;
39848;SDS011;25518;47.878;15.914;2024-03-06T08:17:10;15.50;;;7.00;;
39848;SDS011;25518;47.878;15.914;2024-03-06T08:20:02;14.07;;;6.63;;
39848;SDS011;25518;47.878;15.914;2024-03-06T08:22:59;13.15;;;6.78;;
39848;SDS011;25518;47.878;15.914;2024-03-06T08:25:51;15.73;;;7.30;;
39848;SDS011;25518;47.878;15.914;2024-03-06T08:28:43;14.45;;;7.03;;
39848;SDS011;25518;47.878;15.914;2024-03-06T08:31:34;14.25;;;6.80;;
39848;SDS011;25518;47.878;15.914;2024-03-06T08:34:27;16.10;;;7.50;;
39848;SDS011;25518;47.878;15.914;2024-03-06T08:37:19;19.97;;;8.07;;
39848;SDS011;25518;47.878;15.914;2024-03-06T08:40:10;14.65;;;7.60;;
39848;SDS011;25518;47.878;15.914;2024-03-06T08:43:05;16.33;;;7.70;;
39848;SDS011;25518;47.878;15.914;2024-03-06T08:45:57;13.93;;;6.78;;
39848;SDS011;25518;47.878;15.914;2024-03-06T08:48:49;13.52;;;6.55;;
39848;SDS011;25518;47.878;15.914;2024-03-06T08:51:41;14.83;;;7.37;;
39848;SDS011;25518;47.878;15.914;2024-03-06T08:54:32;14.13;;;7.10;;
39848;SDS011;25518;47.878;15.914;2024-03-06T08:57:25;12.27;;;6.60;;
39848;SDS011;25518;47.878;15.914;2024-03-06T09:00:18;13.70;;;6.55;;
39848;SDS011;25518;47.878;15.914;2024-03-06T09:03:10;12.95;;;6.53;;
39848;SDS011;25518;47.878;15.914;2024-03-06T09:06:01;14.38;;;6.70;;
39848;SDS011;25518;47.878;15.914;2024-03-06T09:08:53;12.02;;;7.22;;
39848;SDS011;25518;47.878;15.914;2024-03-06T09:11:45;11.77;;;6.47;;
39848;SDS011;25518;47.878;15.914;2024-03-06T09:14:37;17.17;;;7.37;;
39848;SDS011;25518;47.878;15.914;2024-03-06T09:17:29;11.18;;;6.28;;
39848;SDS011;25518;47.878;15.914;2024-03-06T09:20:23;12.80;;;6.97;;
39848;SDS011;25518;47.878;15.914;2024-03-06T09:23:15;13.98;;;7.60;;
39848;SDS011;25518;47.878;15.914;2024-03-06T09:26:07;12.45;;;5.97;;
39848;SDS011;25518;47.878;15.914;2024-03-06T09:28:58;13.52;;;6.47;;
39848;SDS011;25518;47.878;15.914;2024-03-06T09:31:51;12.75;;;6.50;;
39848;SDS011;25518;47.878;15.914;2024-03-06T09:34:42;11.60;;;6.03;;
39848;SDS011;25518;47.878;15.914;2024-03-06T09:37:35;11.07;;;6.50;;
39848;SDS011;25518;47.878;15.914;2024-03-06T09:40:26;12.40;;;6.20;;
39848;SDS011;25518;47.878;15.914;2024-03-06T09:43:21;12.35;;;6.38;;
39848;SDS011;25518;47.878;15.914;2024-03-06T09:46:14;12.20;;;5.82;;
39848;SDS011;25518;47.878;15.914;2024-03-06T09:49:05;11.35;;;5.80;;
39848;SDS011;25518;47.878;15.914;2024-03-06T09:51:58;9.80;;;5.47;;
39848;SDS011;25518;47.878;15.914;2024-03-06T09:54:54;11.37;;;5.27;;
39848;SDS011;25518;47.878;15.914;2024-03-06T09:57:45;12.68;;;6.68;;
39848;SDS011;25518;47.878;15.914;2024-03-06T10:00:38;13.85;;;6.55;;
39848;SDS011;25518;47.878;15.914;2024-03-06T10:03:30;11.93;;;6.10;;
39848;SDS011;25518;47.878;15.914;2024-03-06T10:06:23;11.05;;;5.72;;
39848;SDS011;25518;47.878;15.914;2024-03-06T10:09:18;10.95;;;6.40;;
39848;SDS011;25518;47.878;15.914;2024-03-06T10:12:11;12.55;;;6.43;;
39848;SDS011;25518;47.878;15.914;2024-03-06T10:15:03;10.65;;;5.55;;
39848;SDS011;25518;47.878;15.914;2024-03-06T10:18:28;11.10;;;5.38;;
39848;SDS011;25518;47.878;15.914;2024-03-06T10:21:08;11.25;;;5.65;;
39848;SDS011;25518;47.878;15.914;2024-03-06T10:24:00;11.30;;;5.13;;
39848;SDS011;25518;47.878;15.914;2024-03-06T10:26:52;11.85;;;5.45;;
39848;SDS011;25518;47.878;15.914;2024-03-06T10:29:45;11.32;;;5.88;;
39848;SDS011;25518;47.878;15.914;2024-03-06T10:32:36;10.73;;;5.53;;
39848;SDS011;25518;47.878;15.914;2024-03-06T10:35:28;12.73;;;5.65;;
39848;SDS011;25518;47.878;15.914;2024-03-06T10:38:20;10.90;;;5.30;;
39848;SDS011;25518;47.878;15.914;2024-03-06T10:41:14;9.70;;;5.15;;
39848;SDS011;25518;47.878;15.914;2024-03-06T10:44:07;8.97;;;5.10;;
39848;SDS011;25518;47.878;15.914;2024-03-06T10:49:51;10.07;;;5.97;;
39848;SDS011;25518;47.878;15.914;2024-03-06T10:52:46;10.50;;;5.43;;
39848;SDS011;25518;47.878;15.914;2024-03-06T10:55:39;13.02;;;6.25;;
39848;SDS011;25518;47.878;15.914;2024-03-06T10:58:31;11.13;;;5.00;;
39848;SDS011;25518;47.878;15.914;2024-03-06T11:01:23;9.30;;;5.50;;
39848;SDS011;25518;47.878;15.914;2024-03-06T11:04:15;9.63;;;5.20;;
39848;SDS011;25518;47.878;15.914;2024-03-06T11:07:08;10.50;;;5.13;;
39848;SDS011;25518;47.878;15.914;2024-03-06T11:10:00;10.98;;;5.38;;
39848;SDS011;25518;47.878;15.914;2024-03-06T11:12:52;12.38;;;5.43;;
39848;SDS011;25518;47.878;15.914;2024-03-06T11:15:46;12.73;;;6.30;;
39848;SDS011;25518;47.878;15.914;2024-03-06T11:21:30;11.93;;;5.27;;
39848;SDS011;25518;47.878;15.914;2024-03-06T11:24:22;11.80;;;5.55;;
39848;SDS011;25518;47.878;15.914;2024-03-06T11:27:15;8.57;;;5.25;;
39848;SDS011;25518;47.878;15.914;2024-03-06T11:30:07;10.50;;;5.65;;
39848;SDS011;25518;47.878;15.914;2024-03-06T11:33:01;8.40;;;4.53;;
39848;SDS011;25518;47.878;15.914;2024-03-06T11:36:26;11.48;;;5.55;;
39848;SDS011;25518;47.878;15.914;2024-03-06T11:39:09;11.90;;;6.38;;
39848;SDS011;25518;47.878;15.914;2024-03-06T11:42:00;9.30;;;4.80;;
39848;SDS011;25518;47.878;15.914;2024-03-06T11:44:53;10.50;;;4.90;;
39848;SDS011;25518;47.878;15.914;2024-03-06T11:48:01;10.80;;;4.83;;
39848;SDS011;25518;47.878;15.914;2024-03-06T11:50:55;8.32;;;4.40;;
39848;SDS011;25518;47.878;15.914;2024-03-06T11:53:48;10.48;;;5.07;;
39848;SDS011;25518;47.878;15.914;2024-03-06T11:56:40;10.30;;;4.32;;
39848;SDS011;25518;47.878;15.914;2024-03-06T11:59:33;10.48;;;4.90;;
39848;SDS011;25518;47.878;15.914;2024-03-06T12:02:26;8.88;;;4.90;;
39848;SDS011;25518;47.878;15.914;2024-03-06T12:05:18;10.00;;;5.30;;
39848;SDS011;25518;47.878;15.914;2024-03-06T12:08:10;11.98;;;5.60;;
39848;SDS011;25518;47.878;15.914;2024-03-06T12:11:02;9.27;;;4.90;;
39848;SDS011;25518;47.878;15.914;2024-03-06T12:13:55;11.93;;;5.75;;
39848;SDS011;25518;47.878;15.914;2024-03-06T12:17:02;9.77;;;5.25;;
39848;SDS011;25518;47.878;15.914;2024-03-06T12:19:55;10.77;;;5.63;;
39848;SDS011;25518;47.878;15.914;2024-03-06T12:25:43;11.10;;;5.15;;
39848;SDS011;25518;47.878;15.914;2024-03-06T12:28:34;12.82;;;6.28;;
39848;SDS011;25518;47.878;15.914;2024-03-06T12:31:26;11.27;;;6.05;;
39848;SDS011;25518;47.878;15.914;2024-03-06T12:34:18;12.10;;;6.53;;
39848;SDS011;25518;47.878;15.914;2024-03-06T12:37:10;11.15;;;5.70;;
39848;SDS011;25518;47.878;15.914;2024-03-06T12:40:02;13.07;;;6.83;;
39848;SDS011;25518;47.878;15.914;2024-03-06T12:42:55;12.75;;;6.15;;
39848;SDS011;25518;47.878;15.914;2024-03-06T12:45:46;12.23;;;6.23;;
39848;SDS011;25518;47.878;15.914;2024-03-06T12:48:38;11.13;;;6.10;;
39848;SDS011;25518;47.878;15.914;2024-03-06T12:51:30;14.55;;;6.53;;
39848;SDS011;25518;47.878;15.914;2024-03-06T12:54:23;11.68;;;6.50;;
39848;SDS011;25518;47.878;15.914;2024-03-06T12:57:14;11.63;;;6.50;;
39848;SDS011;25518;47.878;15.914;2024-03-06T13:00:08;11.53;;;5.70;;
39848;SDS011;25518;47.878;15.914;2024-03-06T13:03:06;11.00;;;6.05;;
39848;SDS011;25518;47.878;15.914;2024-03-06T13:05:59;12.30;;;5.93;;
39848;SDS011;25518;47.878;15.914;2024-03-06T13:08:50;10.32;;;6.13;;
39848;SDS011;25518;47.878;15.914;2024-03-06T13:11:42;11.70;;;6.03;;
39848;SDS011;25518;47.878;15.914;2024-03-06T13:14:34;11.00;;;6.15;;
39848;SDS011;25518;47.878;15.914;2024-03-06T13:17:25;16.50;;;6.63;;
39848;SDS011;25518;47.878;15.914;2024-03-06T13:20:19;14.25;;;6.72;;
39848;SDS011;25518;47.878;15.914;2024-03-06T13:23:11;10.70;;;5.73;;
39848;SDS011;25518;47.878;15.914;2024-03-06T13:26:03;11.57;;;5.97;;
39848;SDS011;25518;47.878;15.914;2024-03-06T13:28:55;13.60;;;6.88;;
39848;SDS011;25518;47.878;15.914;2024-03-06T13:31:46;11.95;;;6.22;;
39848;SDS011;25518;47.878;15.914;2024-03-06T13:34:43;11.63;;;6.85;;
39848;SDS011;25518;47.878;15.914;2024-03-06T13:37:34;13.43;;;6.37;;
39848;SDS011;25518;47.878;15.914;2024-03-06T13:40:26;10.63;;;5.27;;
39848;SDS011;25518;47.878;15.914;2024-03-06T13:43:18;12.20;;;6.40;;
39848;SDS011;25518;47.878;15.914;2024-03-06T13:46:15;10.25;;;6.50;;
39848;SDS011;25518;47.878;15.914;2024-03-06T13:49:07;13.45;;;6.45;;
39848;SDS011;25518;47.878;15.914;2024-03-06T13:51:59;13.82;;;6.45;;
39848;SDS011;25518;47.878;15.914;2024-03-06T13:54:51;15.77;;;6.75;;
39848;SDS011;25518;47.878;15.914;2024-03-06T13:57:43;13.98;;;7.57;;
39848;SDS011;25518;47.878;15.914;2024-03-06T14:00:35;12.02;;;6.28;;
39848;SDS011;25518;47.878;15.914;2024-03-06T14:03:27;12.68;;;6.78;;
39848;SDS011;25518;47.878;15.914;2024-03-06T14:06:18;13.82;;;7.70;;
39848;SDS011;25518;47.878;15.914;2024-03-06T14:09:10;15.52;;;7.93;;
39848;SDS011;25518;47.878;15.914;2024-03-06T14:12:04;14.55;;;6.90;;
39848;SDS011;25518;47.878;15.914;2024-03-06T14:14:56;16.20;;;8.18;;
39848;SDS011;25518;47.878;15.914;2024-03-06T14:17:47;17.48;;;8.20;;
39848;SDS011;25518;47.878;15.914;2024-03-06T14:20:40;14.37;;;7.10;;
39848;SDS011;25518;47.878;15.914;2024-03-06T14:23:31;13.38;;;6.72;;
39848;SDS011;25518;47.878;15.914;2024-03-06T14:26:23;14.85;;;7.47;;
39848;SDS011;25518;47.878;15.914;2024-03-06T14:29:15;12.50;;;6.95;;
39848;SDS011;25518;47.878;15.914;2024-03-06T14:32:07;14.32;;;6.60;;
39848;SDS011;25518;47.878;15.914;2024-03-06T14:34:59;13.80;;;7.25;;
39848;SDS011;25518;47.878;15.914;2024-03-06T14:37:51;13.70;;;7.07;;
39848;SDS011;25518;47.878;15.914;2024-03-06T14:40:42;17.65;;;7.78;;
39848;SDS011;25518;47.878;15.914;2024-03-06T14:43:35;12.65;;;6.38;;
39848;SDS011;25518;47.878;15.914;2024-03-06T14:46:28;13.82;;;7.10;;
39848;SDS011;25518;47.878;15.914;2024-03-06T14:49:20;13.95;;;7.07;;
39848;SDS011;25518;47.878;15.914;2024-03-06T14:52:12;11.60;;;6.28;;
39848;SDS011;25518;47.878;15.914;2024-03-06T14:55:04;15.80;;;7.25;;
39848;SDS011;25518;47.878;15.914;2024-03-06T14:57:59;14.23;;;6.68;;
39848;SDS011;25518;47.878;15.914;2024-03-06T15:00:51;12.30;;;6.75;;
39848;SDS011;25518;47.878;15.914;2024-03-06T15:03:42;13.00;;;7.25;;
39848;SDS011;25518;47.878;15.914;2024-03-06T15:06:35;15.52;;;7.72;;
39848;SDS011;25518;47.878;15.914;2024-03-06T15:09:26;13.57;;;7.00;;
39848;SDS011;25518;47.878;15.914;2024-03-06T15:12:18;13.15;;;6.60;;
39848;SDS011;25518;47.878;15.914;2024-03-06T15:15:10;11.80;;;5.97;;
39848;SDS011;25518;47.878;15.914;2024-03-06T15:18:02;13.27;;;6.93;;
39848;SDS011;25518;47.878;15.914;2024-03-06T15:20:54;15.40;;;7.10;;
39848;SDS011;25518;47.878;15.914;2024-03-06T15:23:45;14.95;;;7.53;;
39848;SDS011;25518;47.878;15.914;2024-03-06T15:26:40;14.82;;;6.97;;
39848;SDS011;25518;47.878;15.914;2024-03-06T15:29:32;13.45;;;7.03;;
39848;SDS011;25518;47.878;15.914;2024-03-06T15:32:23;15.33;;;7.27;;
39848;SDS011;25518;47.878;15.914;2024-03-06T15:35:15;16.33;;;7.18;;
39848;SDS011;25518;47.878;15.914;2024-03-06T15:38:07;13.70;;;6.53;;
39848;SDS011;25518;47.878;15.914;2024-03-06T15:40:59;14.43;;;7.47;;
39848;SDS011;25518;47.878;15.914;2024-03-06T15:43:51;13.38;;;6.40;;
39848;SDS011;25518;47.878;15.914;2024-03-06T15:46:43;15.65;;;6.97;;
39848;SDS011;25518;47.878;15.914;2024-03-06T15:49:34;15.83;;;7.57;;
39848;SDS011;25518;47.878;15.914;2024-03-06T15:52:27;14.63;;;7.07;;
39848;SDS011;25518;47.878;15.914;2024-03-06T15:55:21;13.52;;;6.78;;
39848;SDS011;25518;47.878;15.914;2024-03-06T15:58:13;17.17;;;7.45;;
39848;SDS011;25518;47.878;15.914;2024-03-06T16:01:04;13.23;;;7.22;;
39848;SDS011;25518;47.878;15.914;2024-03-06T16:04:02;12.63;;;6.00;;
39848;SDS011;25518;47.878;15.914;2024-03-06T16:06:56;11.95;;;6.70;;
39848;SDS011;25518;47.878;15.914;2024-03-06T16:09:48;14.77;;;7.50;;
39848;SDS011;25518;47.878;15.914;2024-03-06T16:12:42;14.07;;;7.80;;
39848;SDS011;25518;47.878;15.914;2024-03-06T16:15:35;15.73;;;7.13;;
39848;SDS011;25518;47.878;15.914;2024-03-06T16:18:27;12.45;;;7.25;;
39848;SDS011;25518;47.878;15.914;2024-03-06T16:21:19;12.07;;;6.57;;
39848;SDS011;25518;47.878;15.914;2024-03-06T16:24:10;10.57;;;5.50;;
39848;SDS011;25518;47.878;15.914;2024-03-06T16:27:03;13.03;;;5.50;;
39848;SDS011;25518;47.878;15.914;2024-03-06T16:29:54;10.95;;;5.40;;
39848;SDS011;25518;47.878;15.914;2024-03-06T16:32:46;12.32;;;5.95;;
39848;SDS011;25518;47.878;15.914;2024-03-06T16:35:38;12.90;;;6.63;;
39848;SDS011;25518;47.878;15.914;2024-03-06T16:38:31;9.25;;;4.93;;
39848;SDS011;25518;47.878;15.914;2024-03-06T16:41:23;9.48;;;5.40;;
39848;SDS011;25518;47.878;15.914;2024-03-06T16:44:15;11.13;;;5.53;;
39848;SDS011;25518;47.878;15.914;2024-03-06T16:47:06;12.80;;;6.57;;
39848;SDS011;25518;47.878;15.914;2024-03-06T16:50:01;10.53;;;5.53;;
39848;SDS011;25518;47.878;15.914;2024-03-06T16:52:53;12.80;;;5.90;;
39848;SDS011;25518;47.878;15.914;2024-03-06T16:55:46;12.23;;;5.97;;
39848;SDS011;25518;47.878;15.914;2024-03-06T16:58:38;10.15;;;5.25;;